METAR Data
IDs: Format: Raw Decoded Include TAF

Data at: 1732 UTC 06 Jul 2020

KSCX 061715Z AUTO 00000KT 10SM FEW070 28/20 A3009 RMK A01
KSCX 061655Z AUTO 00000KT 10SM SCT060 BKN070 29/20 A3010 RMK A01
KSCX 061635Z AUTO 00000KT 10SM SCT060 SCT070 28/19 A3010 RMK A01
KSCX 061615Z AUTO 00000KT 10SM SCT060 28/20 A3010 RMK A01
KSCX 061555Z AUTO 19003KT 10SM BKN060 27/20 A3011 RMK A01
KSCX 061535Z AUTO 22005KT 10SM OVC060 27/20 A3010 RMK A01
KSCX 061515Z AUTO 21004KT 10SM BKN055 27/21 A3010 RMK A01
KSCX 061455Z AUTO 19005KT 10SM FEW060 27/21 A3010 RMK A01
KSCX 061435Z AUTO 20007KT 10SM CLR 27/21 A3009 RMK A01
KSCX 061415Z AUTO 22006KT 10SM CLR 26/21 A3009 RMK A01
KSCX 061355Z AUTO 00000KT 10SM CLR 25/22 A3009 RMK A01
KSCX 061335Z AUTO 20004KT 10SM CLR 25/22 A3009 RMK A01
KSCX 061315Z AUTO 00000KT 10SM CLR 25/22 A3008 RMK A01
KSCX 061255Z AUTO 00000KT 10SM CLR 24/21 A3008 RMK A01
KSCX 061235Z AUTO 00000KT 10SM CLR 23/21 A3008 RMK A01
KSCX 061215Z AUTO 00000KT 10SM CLR 22/21 A3007 RMK A01
KSCX 061155Z AUTO 00000KT 10SM CLR 22/20 A3006 RMK A01
KSCX 061135Z AUTO 00000KT 9SM CLR 21/20 A3006 RMK A01
KSCX 061115Z AUTO 00000KT 2 1/2SM BR CLR 20/20 A3005 RMK A01
KSCX 061055Z AUTO 00000KT M1/4SM FG VV000 19/19 A3005 RMK A01
KSCX 061035Z AUTO 00000KT 4SM BR CLR 19/19 A3004 RMK A01
KSCX 061015Z AUTO 00000KT 10SM CLR 19/19 A3004 RMK A01
KSCX 060955Z AUTO 00000KT 2 1/2SM BR FEW001 FEW044 SCT050 19/19 A3003 RMK A01
KSCX 060935Z AUTO 00000KT 1/4SM FG OVC001 19/19 A3003 RMK A01
KSCX 060915Z AUTO 00000KT 1/4SM FG OVC001 19/19 A3002 RMK A01
KSCX 060855Z AUTO 00000KT 1/2SM FG VV005 19/19 A3001 RMK A01
KSCX 060835Z AUTO 00000KT 3SM BR CLR 20/20 A3001 RMK A01
KSCX 060815Z AUTO 00000KT 10SM CLR 21/20 A3000 RMK A01
KSCX 060755Z AUTO 00000KT 10SM CLR 21/20 A3000 RMK A01
KSCX 060735Z AUTO 00000KT 10SM FEW047 21/20 A3000 RMK A01
KSCX 060715Z AUTO 00000KT 10SM CLR 21/20 A3001 RMK A01
KSCX 060655Z AUTO 00000KT 10SM CLR 21/20 A3001 RMK A01
KSCX 060635Z AUTO 00000KT 9SM CLR 21/21 A3001 RMK A01
KSCX 060615Z AUTO 00000KT 9SM CLR 21/21 A3002 RMK A01
KSCX 060555Z AUTO 00000KT 9SM CLR 21/21 A3002 RMK A01
KSCX 060535Z AUTO 00000KT 8SM FEW043 21/21 A3003 RMK A01
KSCX 060515Z AUTO 00000KT 10SM FEW043 22/21 A3003 RMK A01
KSCX 060455Z AUTO 00000KT 8SM FEW044 FEW050 22/22 A3003 RMK A01
KSCX 060435Z AUTO 00000KT 9SM FEW048 22/22 A3004 RMK A01
KSCX 060415Z AUTO 00000KT 4SM BR CLR 22/22 A3003 RMK A01
KSCX 060355Z AUTO 00000KT 4SM BR CLR 22/22 A3003 RMK A01
KSCX 060335Z AUTO 00000KT 1/2SM FG BKN001 22/22 A3003 RMK A01
KSCX 060315Z AUTO 00000KT 2 1/2SM BR CLR 22/22 A3003 RMK A01
KSCX 060255Z AUTO 00000KT 8SM CLR 22/22 A3003 RMK A01
KSCX 060235Z AUTO 00000KT 1SM BR CLR 22/22 A3003 RMK A01
KSCX 060215Z AUTO 00000KT 5SM BR CLR 23/22 A3002 RMK A01
KSCX 060155Z AUTO 00000KT 7SM CLR 23/22 A3002 RMK A01
KSCX 060135Z AUTO 00000KT 10SM CLR 23/22 A3001 RMK A01
KSCX 060115Z AUTO 00000KT 7SM CLR 23/22 A3001 RMK A01
KSCX 060055Z AUTO 00000KT 8SM CLR 23/23 A3001 RMK A01
KSCX 060035Z AUTO 00000KT 10SM CLR 24/23 A3001 RMK A01
KSCX 060015Z AUTO 00000KT 10SM CLR 24/23 A3000 RMK A01
KSCX 052355Z AUTO 00000KT 10SM CLR 24/22 A2999 RMK A01
KSCX 052335Z AUTO 02003KT 10SM CLR 24/22 A2999 RMK A01
KSCX 052315Z AUTO 00000KT 10SM CLR 25/22 A2998 RMK A01
KSCX 052255Z AUTO 00000KT 10SM CLR 25/22 A2998 RMK A01
KSCX 052235Z AUTO 00000KT 10SM CLR 25/22 A2998 RMK A01
KSCX 052215Z AUTO 00000KT 10SM CLR 25/21 A2997 RMK A01
KSCX 052155Z AUTO 00000KT 10SM CLR 24/21 A2997 RMK A01
KSCX 052135Z AUTO 00000KT 10SM CLR 24/21 A2999 RMK A01
KSCX 052115Z AUTO 17004KT 10SM CLR 23/21 A2999 RMK A01
KSCX 052055Z AUTO 00000KT 10SM CLR 22/19 A2999 RMK A01
KSCX 052035Z AUTO 21004KT 10SM CLR 21/20 A3000 RMK A01
KSCX 052015Z AUTO 00000KT 10SM FEW055 FEW065 SCT075 20/20 A3000 RMK A01
KSCX 051955Z AUTO 00000KT 10SM SCT037 BKN044 OVC080 20/18 A3002 RMK A01 P0079
KSCX 051935Z AUTO 25004KT 2 1/2SM BR SCT004 OVC036 20/18 A3004 RMK A01
KSCX 051915Z AUTO 28007G19KT 1/2SM FG OVC004 20/19 A3006 RMK A01
KSCX 051855Z AUTO VRB03G14KT 10SM FEW026 BKN035 OVC049 25/20 A3004 RMK A01
KSCX 051835Z AUTO 02008KT 10SM BKN042 OVC049 28/22 A3001 RMK A01
KSCX 051815Z AUTO 01005KT 10SM BKN043 OVC055 29/22 A3001 RMK A01
KSCX 051755Z AUTO 29003KT 10SM SCT046 BKN055 31/21 A3001 RMK A01
KSCX 051735Z AUTO VRB06KT 10SM FEW041 SCT050 SCT055 31/20 A3001 RMK A01
KSCX 051715Z AUTO 23005KT 10SM FEW039 30/20 A3002 RMK A01
KSCX 051655Z AUTO 20006KT 10SM CLR 30/21 A3003 RMK A01
KSCX 051635Z AUTO 20007KT 10SM CLR 30/21 A3004 RMK A01
KSCX 051615Z AUTO 00000KT 10SM CLR 30/21 A3004 RMK A01
KSCX 051555Z AUTO 21005KT 10SM FEW050 29/22 A3004 RMK A01
KSCX 051535Z AUTO VRB05KT 10SM BKN050 29/22 A3004 RMK A01
KSCX 051515Z AUTO 00000KT 10SM BKN050 28/22 A3004 RMK A01
KSCX 051455Z AUTO 21006KT 10SM FEW055 28/21 A3004 RMK A01
KSCX 051435Z AUTO 21005KT 10SM CLR 27/21 A3003 RMK A01
KSCX 051415Z AUTO 21005KT 10SM CLR 27/21 A3003 RMK A01
KSCX 051355Z AUTO 18003KT 10SM CLR 27/21 A3003 RMK A01
KSCX 051335Z AUTO 00000KT 10SM CLR 26/21 A3003 RMK A01
KSCX 051315Z AUTO 00000KT 10SM CLR 25/21 A3003 RMK A01
KSCX 051255Z AUTO 00000KT 10SM CLR 25/20 A3003 RMK A01
KSCX 051235Z AUTO 19003KT 10SM CLR 24/20 A3002 RMK A01
KSCX 051215Z AUTO 00000KT 9SM FEW100 23/20 A3001 RMK A01
KSCX 051155Z AUTO 00000KT 10SM SCT100 22/20 A3001 RMK A01
KSCX 051135Z AUTO 00000KT 10SM CLR 22/20 A3001 RMK A01
KSCX 051115Z AUTO 00000KT 9SM CLR 21/20 A3000 RMK A01
KSCX 051055Z AUTO 00000KT 9SM CLR 21/20 A2999 RMK A01
KSCX 051035Z AUTO 00000KT 7SM CLR 20/20 A2999 RMK A01
KSCX 051015Z AUTO 00000KT 5SM BR FEW046 20/19 A2999 RMK A01
KSCX 050955Z AUTO 00000KT 3SM BR SCT047 20/19 A2998 RMK A01
KSCX 050935Z AUTO 00000KT 3SM BR FEW046 19/19 A2998 RMK A01
KSCX 050915Z AUTO 00000KT 5SM BR FEW046 20/20 A2997 RMK A01
KSCX 050855Z AUTO 00000KT 5SM BR SCT044 SCT120 20/20 A2997 RMK A01
KSCX 050835Z AUTO 00000KT 5SM BR FEW043 SCT048 SCT120 20/20 A2997 RMK A01
KSCX 050815Z AUTO 00000KT 4SM BR FEW120 20/20 A2997 RMK A01
KSCX 050755Z AUTO 00000KT 4SM BR CLR 20/20 A2997 RMK A01
KSCX 050735Z AUTO 00000KT 6SM BR FEW120 21/20 A2997 RMK A01
KSCX 050715Z AUTO 00000KT 5SM BR FEW120 21/20 A2997 RMK A01
KSCX 050655Z AUTO 00000KT 5SM BR FEW120 20/20 A2997 RMK A01
KSCX 050635Z AUTO 00000KT 4SM BR CLR 21/20 A2998 RMK A01
KSCX 050615Z AUTO 18003KT 6SM BR FEW100 21/20 A2998 RMK A01
KSCX 050555Z AUTO 00000KT 9SM SCT110 22/20 A2999 RMK A01
KSCX 050535Z AUTO 00000KT 7SM FEW110 22/20 A2999 RMK A01